createdAt,value
2018-10-16T00:03:22.934Z,16.72
2018-10-16T00:09:17.966Z,16.85
2018-10-16T00:15:12.911Z,16.65
2018-10-16T00:21:07.978Z,17.72
2018-10-16T00:27:02.941Z,18.46
2018-10-16T00:32:57.945Z,18.46
2018-10-16T00:38:52.951Z,18.96
2018-10-16T00:44:47.967Z,18.5
2018-10-16T00:50:42.949Z,17.51
2018-10-16T00:56:38.002Z,19.42
2018-10-16T01:02:32.999Z,20.1
2018-10-16T01:08:27.948Z,20.49
2018-10-16T01:14:22.979Z,19.29
2018-10-16T01:20:17.999Z,18.9
2018-10-16T01:26:12.980Z,18.49
2018-10-16T01:32:07.966Z,19.88
2018-10-16T01:38:02.990Z,20.09
2018-10-16T01:43:57.995Z,19.59
2018-10-16T01:49:52.992Z,19.04
2018-10-16T01:55:47.990Z,18.78
2018-10-16T02:01:43.033Z,16.47
2018-10-16T02:07:37.987Z,17.18
2018-10-16T02:13:32.998Z,15.67
2018-10-16T02:19:28.047Z,16.03
2018-10-16T02:25:22.973Z,16.41
2018-10-16T02:31:17.976Z,16.39
2018-10-16T02:37:12.993Z,17.45
2018-10-16T02:43:08.004Z,14.48
2018-10-16T02:49:03.024Z,14.35
2018-10-16T02:54:58.064Z,12.55
2018-10-16T03:00:53.074Z,11.93
2018-10-16T03:06:48.029Z,10.8
2018-10-16T03:12:43.033Z,10.02
2018-10-16T03:18:38.019Z,10.64
2018-10-16T03:24:33.026Z,11.35
2018-10-16T03:30:28.056Z,10.71
2018-10-16T03:36:23.039Z,10.48
2018-10-16T03:42:18.052Z,9.72
2018-10-16T03:48:13.065Z,11
2018-10-16T03:54:08.035Z,10.85
2018-10-16T04:00:03.047Z,10.24
2018-10-16T04:05:58.071Z,9.93
2018-10-16T04:11:53.071Z,10.19
2018-10-16T04:17:48.064Z,9.9
2018-10-16T04:23:43.049Z,13.33
2018-10-16T04:29:38.062Z,10.6
2018-10-16T04:35:33.063Z,10.63
2018-10-16T04:41:28.111Z,10.61
2018-10-16T04:47:23.080Z,10.57
2018-10-16T04:53:18.084Z,9.67
2018-10-16T04:59:13.090Z,10.29
2018-10-16T05:05:08.073Z,10.76
2018-10-16T05:11:03.119Z,9.38
2018-10-16T05:16:58.084Z,10.39
2018-10-16T05:22:53.101Z,9.89
2018-10-16T05:28:48.115Z,10.16
2018-10-16T05:34:43.085Z,9.4
2018-10-16T05:40:38.109Z,9.11
2018-10-16T05:46:33.166Z,7.32
2018-10-16T05:52:28.111Z,9.61
2018-10-16T05:58:23.116Z,9.07
2018-10-16T06:04:18.132Z,9.05
2018-10-16T06:10:13.136Z,5.53
2018-10-16T06:16:08.205Z,7.85
2018-10-16T06:22:03.115Z,9.9
2018-10-16T06:27:58.177Z,8.12
2018-10-16T06:33:53.125Z,10.98
2018-10-16T06:39:48.150Z,9.56
2018-10-16T06:45:43.147Z,8.58
2018-10-16T06:51:38.142Z,9.1
2018-10-16T06:57:33.147Z,9.95
2018-10-16T07:03:28.206Z,7.79
2018-10-16T07:09:23.157Z,8.65
2018-10-16T07:15:18.173Z,9.11
2018-10-16T07:21:13.247Z,7.91
2018-10-16T07:27:08.166Z,8.05
2018-10-16T07:33:03.143Z,8.41
2018-10-16T07:38:58.392Z,8.07
2018-10-16T07:44:53.162Z,8.52
2018-10-16T07:50:48.182Z,8.16
2018-10-16T07:56:43.219Z,7.89
2018-10-16T08:02:38.239Z,7.51
2018-10-16T08:08:33.172Z,7.98
2018-10-16T08:14:28.201Z,7.94
2018-10-16T08:20:23.183Z,8.37
2018-10-16T08:26:18.220Z,8.55
2018-10-16T08:32:13.185Z,8.7
2018-10-16T08:38:08.236Z,8.7
2018-10-16T08:44:03.230Z,7.73
2018-10-16T08:49:58.205Z,7.41
2018-10-16T08:55:53.286Z,9.22
2018-10-16T09:01:48.278Z,8.54
2018-10-16T09:07:43.246Z,10.22
2018-10-16T09:13:38.235Z,8.35
2018-10-16T09:19:33.239Z,6.7
2018-10-16T09:25:28.220Z,8.74
2018-10-16T09:31:23.234Z,8.91
2018-10-16T09:37:18.220Z,7.89
2018-10-16T09:43:13.205Z,8.73
2018-10-16T09:49:08.241Z,7.76
2018-10-16T09:55:03.298Z,9.91
2018-10-16T10:00:58.502Z,8.71
2018-10-16T10:06:53.235Z,8.06
2018-10-16T10:12:48.248Z,8.34
2018-10-16T10:18:43.233Z,8.43
2018-10-16T10:24:38.269Z,7.4
2018-10-16T10:30:33.274Z,7.47
2018-10-16T10:36:28.260Z,7.61
2018-10-16T10:42:23.311Z,8.15
2018-10-16T10:48:18.295Z,7.91
2018-10-16T10:54:13.256Z,8.87
2018-10-16T11:00:08.260Z,10.16
2018-10-16T11:06:03.289Z,9.99
2018-10-16T11:11:58.281Z,8.64
2018-10-16T11:17:53.308Z,8.45
2018-10-16T11:23:48.276Z,9.43
2018-10-16T11:29:43.295Z,7.99
2018-10-16T11:35:38.280Z,8.1
2018-10-16T11:41:33.320Z,8.16
2018-10-16T11:47:28.323Z,9.59
2018-10-16T11:53:23.301Z,7.78
2018-10-16T11:59:18.382Z,8.29
2018-10-16T12:05:13.340Z,7.43
2018-10-16T12:11:08.450Z,7.88
2018-10-16T12:17:03.354Z,8.42
2018-10-16T12:22:58.348Z,8.34
2018-10-16T12:28:53.380Z,8.8
2018-10-16T12:34:48.345Z,8.63
2018-10-16T12:40:43.304Z,9.25
2018-10-16T12:46:38.343Z,8.6
2018-10-16T12:52:33.336Z,9.19
2018-10-16T12:58:28.359Z,9.61
2018-10-16T13:04:23.336Z,9.74
2018-10-16T13:10:18.338Z,10.33
2018-10-16T13:16:13.500Z,9.58
2018-10-16T13:22:08.424Z,8.39
2018-10-16T13:28:03.360Z,10.03
2018-10-16T13:33:58.383Z,8.87
2018-10-16T13:39:53.420Z,10.18
2018-10-16T13:45:48.368Z,9.9
2018-10-16T13:51:43.415Z,10.07
2018-10-16T13:57:38.380Z,9.77
2018-10-16T14:03:33.411Z,8.92
2018-10-16T14:09:28.393Z,9.32
2018-10-16T14:15:23.384Z,9.13
2018-10-16T14:21:18.487Z,9.56
2018-10-16T14:27:13.442Z,9.19
2018-10-16T14:33:08.376Z,9.93
2018-10-16T14:39:03.391Z,10.37
2018-10-16T14:44:58.426Z,10.79
2018-10-16T14:50:53.398Z,9.25
2018-10-16T14:56:48.416Z,8.88
2018-10-16T15:02:43.402Z,10.17
2018-10-16T15:08:38.464Z,10.22
2018-10-16T15:14:33.528Z,9.65
2018-10-16T15:20:28.440Z,11.13
2018-10-16T15:26:23.448Z,10.85
2018-10-16T15:32:18.465Z,11.13
2018-10-16T15:38:13.590Z,9.96
2018-10-16T15:44:08.591Z,9.96
2018-10-16T15:50:03.561Z,9.52
2018-10-16T15:55:58.478Z,9.38
2018-10-16T16:01:53.437Z,13.79
2018-10-16T16:07:48.454Z,10.83
2018-10-16T16:13:43.435Z,11.31
2018-10-16T16:19:38.445Z,10.03
2018-10-16T16:25:33.455Z,10.44
2018-10-16T16:31:28.447Z,9.6
2018-10-16T16:38:56.947Z,9.15
2018-10-16T16:43:19.023Z,7.47
2018-10-16T16:49:20.810Z,7.69
2018-10-16T16:55:11.669Z,7.55
2018-10-16T17:01:05.358Z,7.51
2018-10-16T17:06:58.498Z,7.23
2018-10-16T17:12:53.518Z,7.16
2018-10-16T17:18:48.501Z,8.36
2018-10-16T17:24:43.664Z,7.94
2018-10-16T17:30:38.558Z,8.2
2018-10-16T17:36:33.575Z,7.57
2018-10-16T17:42:28.545Z,7.36
2018-10-16T17:48:23.489Z,7.69
2018-10-16T17:54:18.522Z,7.56
2018-10-16T18:00:13.506Z,6.93
2018-10-16T18:06:08.539Z,6.95
2018-10-16T18:12:03.504Z,6.83
2018-10-16T18:17:58.513Z,5.6
2018-10-16T18:23:53.719Z,6.76
2018-10-16T18:29:48.617Z,6.71
2018-10-16T18:35:43.539Z,5.76
2018-10-16T18:41:38.525Z,5.1
2018-10-16T18:47:33.556Z,5.19
2018-10-16T18:53:28.546Z,5.16
2018-10-16T18:59:23.528Z,5.45
2018-10-16T19:05:18.547Z,5.59
2018-10-16T19:11:13.591Z,5.17
2018-10-16T19:17:08.550Z,4.88
2018-10-16T19:23:03.556Z,5.49
2018-10-16T19:28:58.599Z,5.03
2018-10-16T19:34:53.551Z,5.38
2018-10-16T19:40:48.573Z,4.82
2018-10-16T19:46:43.558Z,4.64
2018-10-16T19:52:38.563Z,4.51
2018-10-16T19:58:33.587Z,4.5
2018-10-16T20:04:28.576Z,3.89
2018-10-16T20:10:23.677Z,4.06
2018-10-16T20:16:18.604Z,3.57
2018-10-16T20:22:13.594Z,3.27
2018-10-16T20:28:08.605Z,3.64
2018-10-16T20:34:03.626Z,3.96
2018-10-16T20:39:58.596Z,4.17
2018-10-16T20:45:53.618Z,4.39
2018-10-16T20:51:48.660Z,3.6
2018-10-16T20:57:43.672Z,3.89
2018-10-16T21:03:38.657Z,3.23
2018-10-16T21:09:33.617Z,3.66
2018-10-16T21:15:28.608Z,3.97
2018-10-16T21:21:23.635Z,3.29
2018-10-16T21:27:18.621Z,2.7
2018-10-16T21:33:13.607Z,3.68
2018-10-16T21:39:08.684Z,4.01
2018-10-16T21:45:03.625Z,3.51
2018-10-16T21:50:58.892Z,4.1
2018-10-16T21:56:53.625Z,4.22
2018-10-16T22:02:48.686Z,3.79
2018-10-16T22:08:43.653Z,3.94
2018-10-16T22:14:38.669Z,3.5
2018-10-16T22:20:33.655Z,4.1
2018-10-16T22:26:28.649Z,3.98
2018-10-16T22:32:23.677Z,4.28
2018-10-16T22:38:18.660Z,4.08
2018-10-16T22:44:13.717Z,3.99
2018-10-16T22:50:08.739Z,4.26
2018-10-16T22:56:03.666Z,5.42
2018-10-16T23:01:58.663Z,6.39
2018-10-16T23:07:53.690Z,6.44
2018-10-16T23:13:48.668Z,7.39
2018-10-16T23:19:43.665Z,6.53
2018-10-16T23:25:38.682Z,6.89
2018-10-16T23:31:33.772Z,7.74
2018-10-16T23:37:28.733Z,7.81
2018-10-16T23:43:23.848Z,7.83
2018-10-16T23:49:18.709Z,7.09
2018-10-16T23:55:13.774Z,6.71
